Time;durP1;ratioP1;P1;durP2;ratioP2;P2;SDS_P1;SDS_P2;PMS_P1;PMS_P2;Temp;Humidity;BMP_temperature;BMP_pressure;BME280_temperature;BME280_humidity;BME280_pressure;Samples;Min_cycle;Max_cycle;Signal;HPM_P1;HPM_P2
2023/02/09 01:10:44;;;;;;;38.77;15.97;;;1.50;92.20;;;;;;4387753;28;21467;-68
2023/02/09 01:13:12;;;;;;;30.73;13.73;;;1.30;92.00;;;;;;5074308;28;20235;-69
2023/02/09 01:15:40;;;;;;;27.70;13.67;;;1.30;92.00;;;;;;5077839;28;20310;-70
2023/02/09 01:18:07;;;;;;;30.47;13.33;;;1.30;91.90;;;;;;5075071;28;20196;-70
2023/02/09 01:20:35;;;;;;;39.93;16.80;;;1.30;91.90;;;;;;5079551;28;20650;-70
2023/02/09 01:23:02;;;;;;;36.40;16.07;;;1.30;91.90;;;;;;5079235;28;20293;-69
2023/02/09 01:25:30;;;;;;;37.70;16.47;;;1.40;91.90;;;;;;5073050;28;20617;-70
2023/02/09 01:28:00;;;;;;;38.63;15.90;;;1.40;91.90;;;;;;5058204;28;20203;-70
2023/02/09 01:30:29;;;;;;;36.93;15.63;;;1.30;91.90;;;;;;5078807;28;20212;-69
2023/02/09 01:32:56;;;;;;;36.80;15.80;;;1.40;91.90;;;;;;5078156;28;20671;-69
2023/02/09 01:35:23;;;;;;;40.47;16.73;;;1.40;91.90;;;;;;5074481;28;20289;-69
2023/02/09 01:37:51;;;;;;;32.00;15.37;;;1.40;91.80;;;;;;5080351;28;20232;-70
2023/02/09 01:40:18;;;;;;;36.30;15.93;;;2.00;92.00;;;;;;5058047;28;20680;-71
2023/02/09 01:42:45;;;;;;;33.43;14.83;;;1.40;91.80;;;;;;5057860;28;20193;-70
2023/02/09 01:45:44;;;;;;;30.33;13.63;;;1.50;91.80;;;;;;5056319;28;20331;-70
2023/02/09 01:48:13;;;;;;;32.80;14.50;;;1.50;91.80;;;;;;5070976;28;20320;-70
2023/02/09 01:50:45;;;;;;;30.63;13.43;;;1.50;91.70;;;;;;5079389;28;20196;-70
2023/02/09 01:53:12;;;;;;;32.27;14.17;;;1.50;91.60;;;;;;5072141;28;20652;-71
2023/02/09 01:55:45;;;;;;;35.17;15.53;;;1.50;91.60;;;;;;5082046;28;20200;-70
2023/02/09 01:58:17;;;;;;;28.57;13.33;;;1.50;91.60;;;;;;5058508;28;20205;-70
2023/02/09 02:00:46;;;;;;;36.17;15.23;;;1.50;91.60;;;;;;5063147;28;20249;-70
2023/02/09 02:03:17;;;;;;;37.20;15.63;;;1.60;91.70;;;;;;5077343;28;20200;-70
2023/02/09 02:05:49;;;;;;;30.00;12.60;;;1.60;91.60;;;;;;5057125;28;20736;-70
2023/02/09 02:08:20;;;;;;;30.40;11.97;;;1.60;91.60;;;;;;5061023;28;20218;-70
2023/02/09 02:10:50;;;;;;;30.07;13.60;;;1.60;91.60;;;;;;5079544;28;20192;-70
2023/02/09 02:13:20;;;;;;;25.27;12.47;;;1.60;91.50;;;;;;5058070;28;20371;-70
2023/02/09 02:15:58;;;;;;;26.83;13.17;;;1.70;91.50;;;;;;5043811;28;20205;-70
2023/02/09 02:18:35;;;;;;;29.27;13.87;;;1.70;91.50;;;;;;5058958;28;20197;-70
2023/02/09 02:21:42;;;;;;;32.13;14.77;;;1.70;91.50;;;;;;5056450;28;20190;-70
2023/02/09 02:24:46;;;;;;;32.33;14.07;;;1.70;91.40;;;;;;5055702;28;20363;-70
2023/02/09 02:27:26;;;;;;;34.23;15.07;;;1.70;91.70;;;;;;5041278;28;20368;-70
2023/02/09 02:30:26;;;;;;;33.60;15.30;;;1.70;91.40;;;;;;5064597;28;20185;-70
2023/02/09 02:33:06;;;;;;;36.27;15.80;;;1.60;91.40;;;;;;5055598;28;20224;-69
2023/02/09 02:35:37;;;;;;;35.07;15.37;;;1.60;91.50;;;;;;5058268;28;20196;-70
2023/02/09 02:38:13;;;;;;;35.70;15.40;;;1.60;91.50;;;;;;5039916;28;20319;-70
2023/02/09 02:40:51;;;;;;;31.97;14.53;;;1.60;91.40;;;;;;5039678;28;20288;-69
2023/02/09 02:43:25;;;;;;;33.43;13.77;;;1.60;91.50;;;;;;5055630;28;20197;-69
2023/02/09 02:45:58;;;;;;;34.57;15.80;;;1.60;91.50;;;;;;5056338;28;20671;-71
2023/02/09 02:48:34;;;;;;;37.00;15.43;;;1.60;91.50;;;;;;5057559;28;20195;-70
2023/02/09 02:51:07;;;;;;;40.47;16.50;;;1.60;91.50;;;;;;5056692;28;20260;-70
2023/02/09 02:53:37;;;;;;;40.63;16.60;;;1.60;91.50;;;;;;5056818;28;20292;-69
2023/02/09 02:56:09;;;;;;;35.90;16.30;;;1.60;91.50;;;;;;5062001;28;20216;-70
2023/02/09 02:58:39;;;;;;;37.03;15.93;;;1.60;91.50;;;;;;5063447;28;20217;-70
2023/02/09 03:01:14;;;;;;;41.33;17.23;;;1.60;91.40;;;;;;5061107;28;20201;-69
2023/02/09 03:03:44;;;;;;;33.93;15.00;;;1.60;91.40;;;;;;5036507;28;20575;-69
2023/02/09 03:06:13;;;;;;;33.93;14.93;;;1.60;91.40;;;;;;5062412;28;20562;-69
2023/02/09 03:08:48;;;;;;;41.23;17.80;;;1.60;91.30;;;;;;5062131;28;20197;-69
2023/02/09 03:11:16;;;;;;;47.33;19.73;;;1.60;91.40;;;;;;5061154;28;20205;-69
2023/02/09 03:13:57;;;;;;;47.53;18.83;;;1.60;91.30;;;;;;5065006;28;20193;-70
2023/02/09 03:16:32;;;;;;;46.07;19.23;;;1.50;91.30;;;;;;5060363;28;20216;-69
2023/02/09 03:19:13;;;;;;;52.30;21.43;;;1.40;91.20;;;;;;5057782;28;20199;-70
2023/02/09 03:21:48;;;;;;;58.37;21.50;;;1.40;91.30;;;;;;5059782;28;20193;-69
2023/02/09 03:24:29;;;;;;;44.53;19.97;;;1.30;91.30;;;;;;5057627;28;20216;-71
2023/02/09 03:27:00;;;;;;;44.83;19.07;;;1.30;91.30;;;;;;5056221;28;20195;-70
2023/02/09 03:29:30;;;;;;;54.93;21.13;;;1.20;91.30;;;;;;5041635;28;20301;-69
2023/02/09 03:31:57;;;;;;;43.87;19.50;;;1.10;91.30;;;;;;5054543;28;20202;-70
2023/02/09 03:34:27;;;;;;;44.80;19.10;;;1.00;91.30;;;;;;5058684;28;20236;-70
2023/02/09 03:36:56;;;;;;;47.33;20.07;;;1.00;91.40;;;;;;5052366;28;20207;-69
2023/02/09 03:39:23;;;;;;;46.03;18.77;;;1.00;91.40;;;;;;5063018;28;20196;-70
2023/02/09 03:41:50;;;;;;;46.17;19.40;;;0.90;91.40;;;;;;5059714;28;20558;-69
2023/02/09 03:44:26;;;;;;;54.30;21.87;;;0.90;91.40;;;;;;5040273;28;20236;-69
2023/02/09 03:46:54;;;;;;;61.07;22.90;;;0.80;91.40;;;;;;5054749;28;20196;-71
2023/02/09 03:49:22;;;;;;;62.60;23.63;;;0.80;91.40;;;;;;5061342;28;20201;-70
2023/02/09 03:51:54;;;;;;;55.50;22.73;;;0.70;91.40;;;;;;5053618;28;20225;-70
2023/02/09 03:54:21;;;;;;;53.63;22.10;;;0.60;91.40;;;;;;5062972;28;20272;-70
2023/02/09 03:56:48;;;;;;;52.47;20.63;;;0.60;91.60;;;;;;5065358;28;20216;-70
2023/02/09 03:59:16;;;;;;;55.00;22.67;;;0.50;91.60;;;;;;5047261;28;20227;-70
2023/02/09 04:01:43;;;;;;;59.13;22.70;;;0.50;91.60;;;;;;5063681;28;20672;-70
2023/02/09 04:04:10;;;;;;;51.67;21.20;;;0.40;91.60;;;;;;5064942;28;20201;-70
2023/02/09 04:06:37;;;;;;;50.63;22.00;;;0.30;91.60;;;;;;5061626;28;20260;-70
2023/02/09 04:16:37;;;;;;;60.83;22.73;;;0.20;92.00;;;;;;4947449;28;20223;-69
2023/02/09 04:19:07;;;;;;;62.57;22.67;;;0.10;92.10;;;;;;5061649;28;20197;-69
2023/02/09 04:21:35;;;;;;;58.63;22.83;;;0.10;92.50;;;;;;5063189;28;20358;-69
2023/02/09 04:24:03;;;;;;;50.53;21.90;;;0.10;92.30;;;;;;5058451;28;20207;-70
2023/02/09 04:26:30;;;;;;;61.53;22.83;;;0.10;92.40;;;;;;5045426;28;20255;-69
2023/02/09 04:28:57;;;;;;;59.90;23.87;;;0.10;92.50;;;;;;5060145;28;20574;-70
2023/02/09 04:31:25;;;;;;;51.20;20.90;;;0.10;92.60;;;;;;5055852;28;20615;-69
2023/02/09 04:33:53;;;;;;;55.13;21.93;;;0.10;92.70;;;;;;5058965;28;20200;-70
2023/02/09 04:36:22;;;;;;;49.60;21.43;;;0.20;92.80;;;;;;5039314;28;20289;-70
2023/02/09 04:38:51;;;;;;;55.33;22.47;;;0.20;92.70;;;;;;5054923;28;20217;-71
2023/02/09 04:41:18;;;;;;;59.63;22.70;;;0.20;92.80;;;;;;5036444;28;20254;-70
2023/02/09 04:43:46;;;;;;;54.33;21.83;;;0.20;92.60;;;;;;5060076;28;20573;-70
2023/02/09 04:46:14;;;;;;;58.60;23.77;;;-0.30;92.30;;;;;;5056675;28;20199;-71
2023/02/09 04:48:42;;;;;;;57.67;22.87;;;-0.20;92.40;;;;;;5063762;28;20199;-69
2023/02/09 04:51:11;;;;;;;59.07;23.37;;;0.10;92.40;;;;;;5054675;28;20209;-70
2023/02/09 04:53:38;;;;;;;59.23;23.13;;;0.00;92.40;;;;;;5061902;28;20614;-70
2023/02/09 04:56:06;;;;;;;56.60;23.73;;;0.00;92.50;;;;;;5059675;28;20204;-70
2023/02/09 05:01:21;;;;;;;59.73;23.10;;;-0.10;92.50;;;;;;5062297;28;20203;-69
2023/02/09 05:03:48;;;;;;;48.53;21.13;;;0.00;92.50;;;;;;5057214;28;20203;-70
2023/02/09 05:06:17;;;;;;;61.97;24.03;;;0.00;92.50;;;;;;5059042;28;20835;-70
2023/02/09 05:08:45;;;;;;;57.13;21.97;;;0.00;92.40;;;;;;5036829;28;20220;-69
2023/02/09 05:11:12;;;;;;;63.40;24.70;;;0.00;92.50;;;;;;5057547;28;20201;-69
2023/02/09 05:13:39;;;;;;;58.93;23.27;;;-0.10;92.40;;;;;;5058417;28;20205;-70
2023/02/09 05:16:07;;;;;;;60.60;23.13;;;-0.10;92.40;;;;;;5056354;28;21045;-70
2023/02/09 05:18:37;;;;;;;62.27;23.93;;;-0.10;92.50;;;;;;5047374;28;20216;-70
2023/02/09 05:21:05;;;;;;;53.97;22.50;;;-0.10;92.50;;;;;;5044632;28;20204;-70
2023/02/09 05:23:36;;;;;;;63.00;24.87;;;-0.10;92.50;;;;;;5059688;28;20656;-69
2023/02/09 05:26:03;;;;;;;67.73;24.70;;;-0.10;92.40;;;;;;5060206;28;20264;-72
2023/02/09 05:28:33;;;;;;;60.77;23.80;;;-0.20;92.60;;;;;;5045295;28;20219;-70
2023/02/09 05:31:02;;;;;;;63.20;23.80;;;-0.20;92.50;;;;;;5058552;28;20219;-70
2023/02/09 05:33:29;;;;;;;65.73;25.07;;;-0.20;92.50;;;;;;5056786;28;20287;-70
2023/02/09 05:35:56;;;;;;;61.27;23.40;;;-0.20;92.60;;;;;;5056565;28;20256;-69
2023/02/09 05:38:23;;;;;;;58.80;22.00;;;-0.20;92.50;;;;;;5055477;28;20695;-70
2023/02/09 05:40:54;;;;;;;61.57;23.93;;;-0.30;92.60;;;;;;5037282;28;20284;-68
2023/02/09 05:43:21;;;;;;;50.47;19.50;;;-0.20;92.70;;;;;;5061013;28;20666;-71
2023/02/09 05:45:48;;;;;;;54.73;21.97;;;-0.10;92.70;;;;;;5058788;28;20201;-71
2023/02/09 05:48:16;;;;;;;50.57;20.77;;;-0.10;92.90;;;;;;5059276;28;20226;-71
2023/02/09 05:50:43;;;;;;;54.13;19.90;;;0.00;92.80;;;;;;5053678;28;20212;-71
2023/02/09 05:53:10;;;;;;;57.57;21.53;;;0.10;92.80;;;;;;5057814;28;20683;-68
2023/02/09 05:55:40;;;;;;;44.97;19.13;;;0.20;92.70;;;;;;5061676;28;20198;-69
2023/02/09 05:58:10;;;;;;;45.40;18.00;;;0.30;92.60;;;;;;5061841;28;20289;-70
2023/02/09 06:00:37;;;;;;;53.90;19.73;;;0.40;92.60;;;;;;5044037;28;20226;-70
2023/02/09 06:03:04;;;;;;;54.47;20.30;;;0.40;92.50;;;;;;5058640;28;20204;-69
2023/02/09 06:05:31;;;;;;;47.67;19.10;;;0.50;92.50;;;;;;5044885;28;20270;-70
2023/02/09 06:07:58;;;;;;;53.70;21.80;;;0.50;92.40;;;;;;5042135;28;20224;-70
2023/02/09 06:10:25;;;;;;;54.77;22.13;;;0.50;92.10;;;;;;5042864;28;20189;-70
2023/02/09 06:12:53;;;;;;;47.70;19.33;;;0.50;92.10;;;;;;5042068;28;20636;-70
2023/02/09 06:15:21;;;;;;;52.57;21.20;;;0.60;92.10;;;;;;5063093;28;20228;-70
2023/02/09 06:17:51;;;;;;;56.33;22.67;;;0.60;92.00;;;;;;5059661;28;20526;-70
2023/02/09 06:20:18;;;;;;;60.87;22.97;;;0.60;91.80;;;;;;5059809;28;20268;-70
2023/02/09 06:22:45;;;;;;;48.63;19.70;;;0.50;91.70;;;;;;5052817;28;20671;-71
2023/02/09 06:25:13;;;;;;;53.03;20.27;;;0.50;91.90;;;;;;5052472;28;20290;-69
2023/02/09 06:27:40;;;;;;;55.87;21.17;;;0.60;91.80;;;;;;5051628;28;20225;-69
2023/02/09 06:30:08;;;;;;;43.83;18.10;;;0.60;91.80;;;;;;5032856;28;20218;-70
2023/02/09 06:32:36;;;;;;;57.63;22.70;;;0.60;91.80;;;;;;5054478;28;20896;-70
2023/02/09 06:35:04;;;;;;;56.43;22.33;;;0.50;91.70;;;;;;5056468;28;20194;-70
2023/02/09 06:37:31;;;;;;;49.10;20.13;;;0.50;91.60;;;;;;5054567;28;20209;-70
2023/02/09 06:39:58;;;;;;;58.13;22.53;;;0.50;91.60;;;;;;5054403;28;20300;-70
2023/02/09 06:42:42;;;;;;;56.73;21.93;;;0.40;91.60;;;;;;5055768;28;20299;-70
2023/02/09 06:45:10;;;;;;;61.80;23.60;;;0.30;91.60;;;;;;5051301;28;20632;-69
2023/02/09 06:47:41;;;;;;;46.90;19.20;;;0.40;91.60;;;;;;5054689;28;20306;-70
2023/02/09 06:50:09;;;;;;;51.83;20.53;;;0.40;91.60;;;;;;5048359;28;20744;-70
2023/02/09 06:52:37;;;;;;;52.13;21.27;;;0.30;91.50;;;;;;5053526;28;20201;-70
2023/02/09 06:55:04;;;;;;;56.93;23.30;;;0.30;91.80;;;;;;5059753;28;20202;-70
2023/02/09 06:57:34;;;;;;;46.43;19.47;;;0.40;91.50;;;;;;5052147;28;20197;-70
2023/02/09 07:00:03;;;;;;;51.87;19.77;;;0.30;91.80;;;;;;5055689;28;20189;-69
2023/02/09 07:02:30;;;;;;;49.33;21.17;;;0.30;91.30;;;;;;5053937;28;20198;-69
2023/02/09 07:04:58;;;;;;;51.67;20.70;;;0.30;91.40;;;;;;5051919;28;20293;-70
2023/02/09 07:07:27;;;;;;;56.97;22.87;;;0.30;91.30;;;;;;5035633;28;20204;-71
2023/02/09 07:09:56;;;;;;;49.93;19.83;;;0.30;91.40;;;;;;5048939;28;20193;-70
2023/02/09 07:12:23;;;;;;;56.13;22.93;;;0.40;91.30;;;;;;5045104;28;20196;-70
2023/02/09 07:14:54;;;;;;;57.33;23.00;;;0.40;91.00;;;;;;5044137;28;20202;-71
2023/02/09 07:17:30;;;;;;;57.47;23.33;;;0.70;91.00;;;;;;5046118;28;20723;-71
2023/02/09 07:20:04;;;;;;;58.20;20.87;;;0.40;90.70;;;;;;5048912;28;20255;-70
2023/02/09 07:22:35;;;;;;;54.67;22.93;;;0.30;90.90;;;;;;5051147;28;20283;-70
2023/02/09 07:25:04;;;;;;;56.03;22.40;;;0.30;90.80;;;;;;5050628;28;20210;-70
2023/02/09 07:27:31;;;;;;;54.23;20.90;;;0.30;90.80;;;;;;5049036;28;20197;-70
2023/02/09 07:29:59;;;;;;;57.17;22.93;;;0.30;90.70;;;;;;5039762;28;20520;-71
2023/02/09 07:32:26;;;;;;;61.27;23.47;;;0.30;90.60;;;;;;5057628;28;20201;-70
2023/02/09 07:34:54;;;;;;;60.13;23.00;;;0.30;90.60;;;;;;5055893;28;20220;-71
2023/02/09 07:37:24;;;;;;;54.87;21.83;;;0.30;90.60;;;;;;5050560;28;20194;-70
2023/02/09 07:39:51;;;;;;;58.87;24.33;;;0.30;90.60;;;;;;5058992;28;20220;-70
2023/02/09 07:42:19;;;;;;;66.53;26.50;;;0.20;90.40;;;;;;5055879;28;20553;-70
2023/02/09 07:44:50;;;;;;;62.60;25.43;;;0.20;90.50;;;;;;5042239;28;20644;-71
2023/02/09 07:47:20;;;;;;;61.60;25.03;;;0.20;90.50;;;;;;5053252;28;21126;-70
2023/02/09 07:49:50;;;;;;;63.93;25.07;;;2.00;91.50;;;;;;5062307;28;20225;-70
2023/02/09 07:52:20;;;;;;;56.40;22.77;;;0.30;90.70;;;;;;5035784;28;20210;-70
2023/02/09 07:54:53;;;;;;;54.30;22.90;;;0.30;90.60;;;;;;5062515;28;20197;-70
2023/02/09 07:57:20;;;;;;;56.20;22.97;;;0.30;90.40;;;;;;5054895;28;20691;-70
2023/02/09 07:59:47;;;;;;;61.87;23.60;;;0.50;90.50;;;;;;5056715;28;20295;-70
2023/02/09 08:02:26;;;;;;;63.90;24.43;;;0.50;90.20;;;;;;5056027;28;20208;-70
2023/02/09 08:04:55;;;;;;;62.57;23.77;;;0.40;90.20;;;;;;5054498;28;20205;-70
2023/02/09 08:07:22;;;;;;;63.43;25.93;;;0.20;90.00;;;;;;5054738;28;20744;-69
2023/02/09 08:09:51;;;;;;;62.20;23.40;;;0.40;90.30;;;;;;5059853;28;20193;-69
2023/02/09 08:12:18;;;;;;;61.23;23.73;;;0.40;90.30;;;;;;5049448;28;20193;-70
2023/02/09 08:14:47;;;;;;;55.90;23.03;;;0.40;90.30;;;;;;5065116;28;20204;-70
2023/02/09 08:17:22;;;;;;;60.97;24.60;;;0.30;90.20;;;;;;5056052;28;20221;-71
2023/02/09 08:19:53;;;;;;;62.43;25.50;;;0.30;90.20;;;;;;5033675;28;20217;-70
2023/02/09 08:22:25;;;;;;;65.23;25.30;;;0.30;90.20;;;;;;5055677;28;20556;-70
2023/02/09 08:24:54;;;;;;;70.47;27.03;;;0.30;90.30;;;;;;5035205;28;20201;-69
2023/02/09 08:27:23;;;;;;;68.43;25.10;;;0.30;90.40;;;;;;5050128;28;21788;-71
2023/02/09 08:29:50;;;;;;;66.70;25.60;;;0.30;90.50;;;;;;5062418;28;20197;-70
2023/02/09 08:32:20;;;;;;;64.97;24.70;;;0.30;90.50;;;;;;5053648;28;20222;-71
2023/02/09 08:34:48;;;;;;;69.47;27.07;;;0.30;90.90;;;;;;5052391;28;20289;-69
2023/02/09 08:37:17;;;;;;;69.27;26.47;;;0.40;90.50;;;;;;5031423;28;20193;-70
2023/02/09 08:39:45;;;;;;;64.00;25.47;;;0.40;90.70;;;;;;5058903;28;20205;-70
2023/02/09 08:42:15;;;;;;;66.63;26.13;;;0.40;90.50;;;;;;5029403;28;20212;-70
2023/02/09 08:44:46;;;;;;;69.40;25.93;;;0.40;91.20;;;;;;5056037;28;20196;-70
2023/02/09 08:47:13;;;;;;;64.37;26.07;;;0.40;90.70;;;;;;5049927;28;20227;-70
2023/02/09 08:49:49;;;;;;;71.97;26.73;;;0.40;90.50;;;;;;5041096;28;20190;-70
2023/02/09 08:52:16;;;;;;;65.70;25.37;;;0.40;90.60;;;;;;5055665;28;20193;-69
2023/02/09 08:54:43;;;;;;;67.40;25.43;;;0.50;90.60;;;;;;5060490;28;20224;-69
2023/02/09 08:57:12;;;;;;;63.47;24.90;;;0.60;90.50;;;;;;5050084;28;21038;-69
2023/02/09 08:59:40;;;;;;;68.70;25.73;;;0.80;90.50;;;;;;5057354;28;20220;-70
2023/02/09 09:02:08;;;;;;;61.83;24.83;;;0.90;90.60;;;;;;5049991;28;20189;-69
2023/02/09 09:04:35;;;;;;;70.53;27.03;;;1.10;90.40;;;;;;5053614;28;20202;-70
2023/02/09 09:07:02;;;;;;;73.70;27.50;;;1.20;90.20;;;;;;5058571;28;20208;-68
2023/02/09 09:09:35;;;;;;;62.13;25.67;;;1.30;90.00;;;;;;5058235;28;20598;-70
2023/02/09 09:12:04;;;;;;;62.03;24.43;;;1.30;89.30;;;;;;5040762;28;20197;-69
2023/02/09 09:14:31;;;;;;;69.33;27.80;;;1.40;89.60;;;;;;5060989;28;20368;-71
2023/02/09 09:17:00;;;;;;;73.50;28.53;;;1.60;89.20;;;;;;5051129;28;20224;-70
2023/02/09 09:19:28;;;;;;;66.97;26.80;;;1.60;88.30;;;;;;5050953;28;20210;-69
2023/02/09 09:21:55;;;;;;;68.00;27.90;;;1.60;88.50;;;;;;5053477;28;20200;-69
2023/02/09 09:24:26;;;;;;;64.47;25.33;;;1.60;88.30;;;;;;5053433;28;20189;-71
2023/02/09 09:27:03;;;;;;;70.40;28.50;;;1.60;88.40;;;;;;5045815;28;20189;-71
2023/02/09 09:29:33;;;;;;;77.27;30.63;;;1.70;88.20;;;;;;5061955;28;20205;-70
2023/02/09 09:32:02;;;;;;;69.17;28.90;;;1.70;88.00;;;;;;5051679;28;20201;-71
2023/02/09 09:34:29;;;;;;;73.77;29.67;;;1.70;87.70;;;;;;5040504;28;20289;-70
2023/02/09 09:36:57;;;;;;;68.17;27.33;;;1.70;87.40;;;;;;5050027;28;20556;-70
2023/02/09 09:39:25;;;;;;;62.30;24.80;;;1.70;88.90;;;;;;5037044;28;20205;-69
2023/02/09 09:41:58;;;;;;;70.83;26.20;;;1.80;87.90;;;;;;5031933;28;20194;-70
2023/02/09 09:44:31;;;;;;;70.93;28.40;;;1.90;87.70;;;;;;5050214;28;20280;-71
2023/02/09 09:47:01;;;;;;;64.63;26.07;;;2.00;87.20;;;;;;5048436;28;20200;-71
2023/02/09 09:49:32;;;;;;;64.63;25.83;;;2.10;87.60;;;;;;5052980;28;20197;-69
2023/02/09 09:52:06;;;;;;;58.50;24.37;;;2.30;87.00;;;;;;5046700;28;20710;-70
2023/02/09 09:54:39;;;;;;;53.27;22.90;;;2.50;87.20;;;;;;5049999;28;20280;-70
2023/02/09 09:57:18;;;;;;;63.50;26.50;;;3.10;87.30;;;;;;5051335;28;20197;-70
2023/02/09 09:59:47;;;;;;;61.20;27.10;;;3.80;85.00;;;;;;5046248;28;20790;-70
2023/02/09 10:02:22;;;;;;;64.27;26.10;;;4.00;83.20;;;;;;5036433;28;21007;-69
2023/02/09 10:04:54;;;;;;;52.63;22.07;;;4.20;82.50;;;;;;5056038;28;20205;-70
2023/02/09 10:07:22;;;;;;;50.87;22.13;;;4.30;82.50;;;;;;5049544;28;20284;-70
2023/02/09 10:09:58;;;;;;;51.20;21.27;;;4.80;83.10;;;;;;5063161;28;20196;-70
2023/02/09 10:12:38;;;;;;;54.10;23.27;;;5.00;81.60;;;;;;5045654;28;20185;-71
2023/02/09 10:15:26;;;;;;;61.77;25.77;;;5.30;81.00;;;;;;5034425;28;20193;-69
2023/02/09 10:17:57;;;;;;;56.70;23.83;;;5.50;78.40;;;;;;5038087;28;20239;-71
2023/02/09 10:23:28;;;;;;;54.63;23.27;;;5.60;78.90;;;;;;5116220;27;20896;-67
2023/02/09 10:26:00;;;;;;;56.33;24.33;;;6.70;76.90;;;;;;5122228;28;20217;-65
2023/02/09 10:28:30;;;;;;;59.33;24.47;;;6.90;75.20;;;;;;5102730;28;20191;-66
2023/02/09 10:31:02;;;;;;;58.60;24.27;;;6.90;73.70;;;;;;5117617;27;20199;-66
2023/02/09 10:33:40;;;;;;;60.10;25.53;;;7.00;73.40;;;;;;5110590;28;20281;-67
2023/02/09 10:36:23;;;;;;;56.20;22.77;;;7.20;72.40;;;;;;5115876;27;20273;-66
2023/02/09 10:38:56;;;;;;;49.20;21.60;;;7.60;71.50;;;;;;5119061;28;20243;-66
2023/02/09 10:41:23;;;;;;;52.47;22.90;;;7.90;69.60;;;;;;5119137;27;20754;-67
2023/02/09 10:43:52;;;;;;;49.07;20.63;;;8.00;69.10;;;;;;5112693;27;20192;-67
2023/02/09 10:46:24;;;;;;;44.47;19.47;;;8.10;69.40;;;;;;5119469;28;20244;-67
2023/02/09 10:48:54;;;;;;;45.90;19.87;;;8.50;70.40;;;;;;5119331;28;20291;-67
2023/02/09 10:51:27;;;;;;;38.33;18.23;;;8.90;68.40;;;;;;5115161;28;20189;-66
2023/02/09 10:54:01;;;;;;;48.17;21.33;;;9.20;67.30;;;;;;5120764;27;20194;-67
2023/02/09 10:56:35;;;;;;;50.33;21.93;;;9.40;65.00;;;;;;5121462;27;20537;-67
2023/02/09 10:59:14;;;;;;;47.23;20.13;;;9.50;64.20;;;;;;5130432;27;20198;-66
2023/02/09 11:01:53;;;;;;;41.33;19.73;;;9.40;63.00;;;;;;5119439;28;20206;-67
2023/02/09 11:04:22;;;;;;;41.20;18.60;;;9.40;63.30;;;;;;5121761;27;20602;-66
2023/02/09 11:06:55;;;;;;;40.43;19.13;;;9.40;62.50;;;;;;5112204;28;20232;-66
2023/02/09 11:09:29;;;;;;;47.77;20.87;;;9.20;62.40;;;;;;5113032;27;20192;-65
2023/02/09 11:11:57;;;;;;;42.23;19.53;;;8.90;61.30;;;;;;5109392;27;20278;-66
2023/02/09 11:14:24;;;;;;;46.83;20.83;;;8.50;61.60;;;;;;5115451;27;20700;-67
2023/02/09 11:17:05;;;;;;;47.70;21.23;;;8.30;62.40;;;;;;5112966;27;20196;-67
2023/02/09 11:20:12;;;;;;;36.83;18.50;;;8.10;62.70;;;;;;5116273;27;20282;-68
2023/02/09 11:22:57;;;;;;;46.23;20.27;;;8.20;63.50;;;;;;5119992;27;20244;-66
2023/02/09 11:25:28;;;;;;;44.50;19.43;;;8.40;63.20;;;;;;5133680;27;20208;-67
2023/02/09 11:28:28;;;;;;;44.67;19.50;;;8.60;63.00;;;;;;5130021;27;20750;-66
2023/02/09 11:31:27;;;;;;;44.27;19.10;;;8.60;62.40;;;;;;5116795;28;20294;-66
2023/02/09 11:34:05;;;;;;;36.37;17.40;;;8.60;61.50;;;;;;5105774;28;20258;-65
2023/02/09 11:36:46;;;;;;;34.00;15.87;;;8.50;61.50;;;;;;5105703;28;20182;-66
2023/02/09 11:39:24;;;;;;;37.97;17.20;;;8.40;62.80;;;;;;5105214;28;20559;-66
2023/02/09 11:44:51;;;;;;;36.77;17.47;;;6.60;60.70;;;;;;5103661;28;20188;-67
2023/02/09 11:47:24;;;;;;;39.93;19.20;;;7.80;62.00;;;;;;5094877;28;20223;-67
2023/02/09 11:49:56;;;;;;;37.67;18.00;;;7.60;62.10;;;;;;5101988;28;20195;-66
2023/02/09 11:52:34;;;;;;;42.37;18.03;;;7.40;62.40;;;;;;5105632;28;20642;-66
2023/02/09 11:55:18;;;;;;;36.67;16.70;;;7.20;62.70;;;;;;5104315;28;20571;-67
2023/02/09 11:57:53;;;;;;;32.83;15.67;;;7.00;63.00;;;;;;5101819;28;20201;-67
2023/02/09 12:00:29;;;;;;;35.90;15.10;;;6.80;63.30;;;;;;5104055;28;20204;-66
2023/02/09 12:03:02;;;;;;;43.53;17.83;;;6.90;64.80;;;;;;5097987;28;20196;-67
2023/02/09 12:05:29;;;;;;;41.73;19.33;;;6.90;64.50;;;;;;5099829;28;20198;-67
2023/02/09 12:08:15;;;;;;;44.63;19.80;;;6.80;64.60;;;;;;5098223;27;20290;-67
2023/02/09 12:10:48;;;;;;;44.67;19.87;;;6.70;65.00;;;;;;5100439;27;20193;-66
2023/02/09 12:13:28;;;;;;;45.20;19.70;;;6.50;65.40;;;;;;5104313;27;20194;-68
2023/02/09 12:16:02;;;;;;;40.77;18.13;;;6.40;65.70;;;;;;5097146;28;20239;-67
2023/02/09 12:18:34;;;;;;;44.20;19.87;;;6.30;66.20;;;;;;5097299;28;20189;-66
2023/02/09 12:21:06;;;;;;;44.87;20.10;;;6.30;67.40;;;;;;5097199;28;20330;-67
2023/02/09 12:23:37;;;;;;;43.53;19.33;;;6.20;67.20;;;;;;5103026;28;20215;-66
2023/02/09 12:26:27;;;;;;;41.53;18.33;;;6.20;67.20;;;;;;5103086;28;20202;-65
2023/02/09 12:29:02;;;;;;;44.67;19.60;;;6.10;67.50;;;;;;5102795;28;20212;-66
2023/02/09 12:31:31;;;;;;;40.33;18.93;;;6.10;67.70;;;;;;5099659;28;20194;-66
2023/02/09 12:34:30;;;;;;;34.43;17.80;;;6.20;67.90;;;;;;5094262;28;20192;-66
2023/02/09 12:37:23;;;;;;;39.03;17.63;;;6.20;67.90;;;;;;5102574;28;20208;-67
2023/02/09 12:40:26;;;;;;;50.37;20.57;;;6.20;68.00;;;;;;5101184;28;20200;-67
2023/02/09 12:43:27;;;;;;;42.47;19.27;;;6.00;67.90;;;;;;5097982;28;20218;-67
2023/02/09 12:46:19;;;;;;;37.80;17.33;;;5.90;68.40;;;;;;5077507;28;20242;-66
2023/02/09 12:48:53;;;;;;;43.90;18.87;;;6.00;68.90;;;;;;5098549;28;20236;-67
2023/02/09 12:51:47;;;;;;;42.93;18.90;;;6.10;68.70;;;;;;5101732;28;20260;-67
2023/02/09 12:58:01;;;;;;;38.03;18.33;;;6.10;68.70;;;;;;5074161;28;20180;-67
2023/02/09 13:00:41;;;;;;;47.17;20.70;;;6.00;68.90;;;;;;5096848;28;20199;-67
2023/02/09 13:03:18;;;;;;;43.73;19.13;;;6.00;69.10;;;;;;5098227;28;20201;-66
2023/02/09 13:05:47;;;;;;;42.60;19.03;;;5.90;69.10;;;;;;5094355;28;20258;-66
2023/02/09 13:08:31;;;;;;;44.07;18.53;;;5.90;69.30;;;;;;5097477;28;20430;-67
2023/02/09 13:11:04;;;;;;;40.60;18.03;;;5.90;69.50;;;;;;5096903;27;20258;-66
2023/02/09 13:13:44;;;;;;;43.70;19.17;;;5.90;69.70;;;;;;5099794;28;20724;-67
2023/02/09 13:16:42;;;;;;;39.50;19.63;;;6.00;69.60;;;;;;5102961;27;20858;-66
2023/02/09 13:19:43;;;;;;;46.53;19.93;;;6.00;69.30;;;;;;5099248;28;20307;-67
2023/02/09 13:22:27;;;;;;;49.80;20.97;;;6.00;69.60;;;;;;5103255;28;20233;-66
2023/02/09 13:24:59;;;;;;;41.53;18.47;;;6.00;69.80;;;;;;5099982;27;20241;-66
2023/02/09 13:27:27;;;;;;;42.67;18.07;;;6.10;69.20;;;;;;5097515;28;20196;-67
2023/02/09 13:29:56;;;;;;;38.07;17.30;;;6.30;68.90;;;;;;5101473;27;20189;-67
2023/02/09 13:32:40;;;;;;;33.93;16.30;;;6.30;67.50;;;;;;5098412;28;20200;-67
2023/02/09 13:35:16;;;;;;;37.30;16.77;;;6.30;67.10;;;;;;5096764;28;20205;-66
2023/02/09 13:37:46;;;;;;;37.83;15.43;;;6.40;66.60;;;;;;5101308;27;20321;-66
2023/02/09 13:40:17;;;;;;;36.63;17.53;;;6.50;66.50;;;;;;5101452;27;20232;-67
2023/02/09 13:42:54;;;;;;;31.37;14.00;;;6.50;66.30;;;;;;5098035;28;20617;-65
2023/02/09 13:45:25;;;;;;;30.77;14.97;;;6.50;66.50;;;;;;5099407;28;20246;-67
2023/02/09 13:47:53;;;;;;;35.57;16.23;;;6.40;66.50;;;;;;5095940;27;20258;-67
2023/02/09 13:50:24;;;;;;;35.17;15.40;;;6.40;66.30;;;;;;5094250;28;20196;-67
2023/02/09 13:52:52;;;;;;;35.10;15.80;;;6.30;66.60;;;;;;5098546;28;20209;-66
2023/02/09 13:55:25;;;;;;;31.23;15.00;;;6.20;66.30;;;;;;5089157;28;20200;-67
2023/02/09 13:58:03;;;;;;;33.27;14.90;;;6.10;66.80;;;;;;5095620;27;20199;-67
2023/02/09 14:00:39;;;;;;;32.63;14.93;;;6.00;67.10;;;;;;5095724;28;20195;-66
2023/02/09 14:03:13;;;;;;;36.37;15.93;;;5.90;67.20;;;;;;5099650;28;20210;-66
2023/02/09 14:05:47;;;;;;;39.00;16.93;;;5.80;67.40;;;;;;5101791;28;20189;-65
2023/02/09 14:08:21;;;;;;;38.77;17.07;;;5.70;67.50;;;;;;5099868;28;20280;-65
2023/02/09 14:10:54;;;;;;;37.30;17.83;;;5.60;67.80;;;;;;5102035;27;20188;-65
2023/02/09 14:13:27;;;;;;;35.37;15.83;;;5.50;68.00;;;;;;5098024;28;20215;-66
2023/02/09 14:16:06;;;;;;;39.53;17.07;;;5.50;68.30;;;;;;5094497;28;20667;-65
2023/02/09 14:19:03;;;;;;;31.30;15.30;;;5.40;68.60;;;;;;5096621;28;20225;-66
2023/02/09 14:21:44;;;;;;;37.23;17.47;;;5.40;68.80;;;;;;5098521;28;20371;-68
2023/02/09 14:24:18;;;;;;;40.63;17.93;;;5.30;68.90;;;;;;5100370;28;20303;-66
2023/02/09 14:26:54;;;;;;;38.70;17.87;;;5.20;69.20;;;;;;5097908;28;20215;-66
2023/02/09 14:29:25;;;;;;;34.23;16.10;;;5.10;69.50;;;;;;5099495;28;20287;-66
2023/02/09 14:31:54;;;;;;;45.67;19.87;;;5.10;69.70;;;;;;5097478;28;20183;-66